sensor_id;sensor_type;location;lat;lon;timestamp;pressure;altitude;pressure_sealevel;temperature;humidity
65872;BME280;52653;50.080;21.992;2023-04-10T00:00:51;99752.79;;;6.65;86.41
65872;BME280;52653;50.080;21.992;2023-04-10T00:03:31;99749.16;;;6.67;86.44
65872;BME280;52653;50.080;21.992;2023-04-10T00:06:04;99749.20;;;6.70;86.55
65872;BME280;52653;50.080;21.992;2023-04-10T00:08:47;99743.63;;;6.71;86.63
65872;BME280;52653;50.080;21.992;2023-04-10T00:11:21;99745.98;;;6.74;86.60
65872;BME280;52653;50.080;21.992;2023-04-10T00:14:04;99744.64;;;6.78;86.69
65872;BME280;52653;50.080;21.992;2023-04-10T00:16:37;99743.44;;;6.80;86.64
65872;BME280;52653;50.080;21.992;2023-04-10T00:19:09;99745.70;;;6.80;86.72
65872;BME280;52653;50.080;21.992;2023-04-10T00:21:43;99743.92;;;6.77;86.71
65872;BME280;52653;50.080;21.992;2023-04-10T00:24:37;99737.45;;;6.75;86.72
65872;BME280;52653;50.080;21.992;2023-04-10T00:27:09;99738.05;;;6.70;86.88
65872;BME280;52653;50.080;21.992;2023-04-10T00:29:46;99738.54;;;6.68;87.06
65872;BME280;52653;50.080;21.992;2023-04-10T00:32:22;99736.79;;;6.67;87.26
65872;BME280;52653;50.080;21.992;2023-04-10T00:34:55;99735.94;;;6.69;87.07
65872;BME280;52653;50.080;21.992;2023-04-10T00:37:38;99735.64;;;6.72;87.09
65872;BME280;52653;50.080;21.992;2023-04-10T00:40:12;99731.35;;;6.75;86.83
65872;BME280;52653;50.080;21.992;2023-04-10T00:42:44;99731.16;;;6.75;86.90
65872;BME280;52653;50.080;21.992;2023-04-10T00:45:17;99730.77;;;6.72;86.88
65872;BME280;52653;50.080;21.992;2023-04-10T00:48:00;99732.80;;;6.69;86.95
65872;BME280;52653;50.080;21.992;2023-04-10T00:50:37;99736.91;;;6.64;87.29
65872;BME280;52653;50.080;21.992;2023-04-10T00:53:10;99734.25;;;6.61;87.26
65872;BME280;52653;50.080;21.992;2023-04-10T00:55:53;99730.27;;;6.63;87.43
65872;BME280;52653;50.080;21.992;2023-04-10T00:58:28;99727.85;;;6.64;87.38
65872;BME280;52653;50.080;21.992;2023-04-10T01:01:05;99730.29;;;6.64;87.49
65872;BME280;52653;50.080;21.992;2023-04-10T01:03:59;99721.94;;;6.65;87.21
65872;BME280;52653;50.080;21.992;2023-04-10T01:06:49;99723.52;;;6.66;87.29
65872;BME280;52653;50.080;21.992;2023-04-10T01:09:37;99721.77;;;6.65;87.14
65872;BME280;52653;50.080;21.992;2023-04-10T01:12:30;99715.34;;;6.67;87.39
65872;BME280;52653;50.080;21.992;2023-04-10T01:15:11;99711.65;;;6.65;87.27
65872;BME280;52653;50.080;21.992;2023-04-10T01:17:47;99705.59;;;6.57;87.51
65872;BME280;52653;50.080;21.992;2023-04-10T01:20:33;99708.31;;;6.53;87.65
65872;BME280;52653;50.080;21.992;2023-04-10T01:23:24;99706.46;;;6.46;87.81
65872;BME280;52653;50.080;21.992;2023-04-10T01:26:35;99711.06;;;6.40;88.09
65872;BME280;52653;50.080;21.992;2023-04-10T01:29:15;99701.75;;;6.35;88.36
65872;BME280;52653;50.080;21.992;2023-04-10T01:32:02;99703.95;;;6.33;88.53
65872;BME280;52653;50.080;21.992;2023-04-10T01:34:38;99701.16;;;6.32;88.90
65872;BME280;52653;50.080;21.992;2023-04-10T01:37:36;99706.20;;;6.31;88.91
65872;BME280;52653;50.080;21.992;2023-04-10T01:40:13;99705.83;;;6.30;89.03
65872;BME280;52653;50.080;21.992;2023-04-10T01:42:50;99705.39;;;6.34;89.04
65872;BME280;52653;50.080;21.992;2023-04-10T01:45:28;99702.33;;;6.38;89.00
65872;BME280;52653;50.080;21.992;2023-04-10T01:48:21;99706.91;;;6.42;89.05
65872;BME280;52653;50.080;21.992;2023-04-10T01:50:55;99704.33;;;6.44;89.04
65872;BME280;52653;50.080;21.992;2023-04-10T01:53:40;99707.20;;;6.49;88.92
65872;BME280;52653;50.080;21.992;2023-04-10T01:56:20;99717.09;;;6.57;88.99
65872;BME280;52653;50.080;21.992;2023-04-10T01:59:08;99731.61;;;6.60;88.67
65872;BME280;52653;50.080;21.992;2023-04-10T02:02:02;99735.54;;;6.55;88.64
65872;BME280;52653;50.080;21.992;2023-04-10T02:04:35;99730.95;;;6.52;88.68
65872;BME280;52653;50.080;21.992;2023-04-10T02:07:13;99723.60;;;6.49;88.81
65872;BME280;52653;50.080;21.992;2023-04-10T02:09:56;99720.32;;;6.51;88.95
65872;BME280;52653;50.080;21.992;2023-04-10T02:12:33;99715.83;;;6.54;88.91
65872;BME280;52653;50.080;21.992;2023-04-10T02:15:22;99720.76;;;6.58;88.70
65872;BME280;52653;50.080;21.992;2023-04-10T02:17:56;99716.52;;;6.65;88.77
65872;BME280;52653;50.080;21.992;2023-04-10T02:20:30;99718.21;;;6.72;88.56
65872;BME280;52653;50.080;21.992;2023-04-10T02:23:06;99716.43;;;6.81;88.51
65872;BME280;52653;50.080;21.992;2023-04-10T02:25:44;99717.27;;;6.91;88.81
65872;BME280;52653;50.080;21.992;2023-04-10T02:28:28;99716.56;;;7.01;88.46
65872;BME280;52653;50.080;21.992;2023-04-10T02:31:04;99710.70;;;7.06;88.13
65872;BME280;52653;50.080;21.992;2023-04-10T02:33:47;99712.60;;;7.04;87.55
65872;BME280;52653;50.080;21.992;2023-04-10T02:36:22;99711.42;;;6.95;87.47
65872;BME280;52653;50.080;21.992;2023-04-10T02:38:59;99707.42;;;6.85;87.46
65872;BME280;52653;50.080;21.992;2023-04-10T02:41:31;99703.98;;;6.76;87.82
65872;BME280;52653;50.080;21.992;2023-04-10T02:44:05;99699.34;;;6.69;88.22
65872;BME280;52653;50.080;21.992;2023-04-10T02:46:42;99700.70;;;6.67;88.23
65872;BME280;52653;50.080;21.992;2023-04-10T02:49:18;99697.77;;;6.70;88.53
65872;BME280;52653;50.080;21.992;2023-04-10T02:52:11;99701.10;;;6.71;88.53
65872;BME280;52653;50.080;21.992;2023-04-10T02:54:45;99699.19;;;6.71;88.38
65872;BME280;52653;50.080;21.992;2023-04-10T02:57:38;99698.21;;;6.75;88.37
65872;BME280;52653;50.080;21.992;2023-04-10T03:00:21;99695.98;;;6.77;88.29
65872;BME280;52653;50.080;21.992;2023-04-10T03:03:32;99697.41;;;6.80;88.13
65872;BME280;52653;50.080;21.992;2023-04-10T03:06:09;99694.11;;;6.81;88.25
65872;BME280;52653;50.080;21.992;2023-04-10T03:08:56;99692.87;;;6.78;88.23
65872;BME280;52653;50.080;21.992;2023-04-10T03:11:29;99691.20;;;6.72;88.34
65872;BME280;52653;50.080;21.992;2023-04-10T03:14:01;99692.85;;;6.66;88.27
65872;BME280;52653;50.080;21.992;2023-04-10T03:16:38;99696.26;;;6.61;88.55
65872;BME280;52653;50.080;21.992;2023-04-10T03:19:22;99693.58;;;6.58;88.70
65872;BME280;52653;50.080;21.992;2023-04-10T03:21:56;99692.66;;;6.54;88.65
65872;BME280;52653;50.080;21.992;2023-04-10T03:24:32;99695.42;;;6.53;88.94
65872;BME280;52653;50.080;21.992;2023-04-10T03:27:21;99700.86;;;6.56;89.02
65872;BME280;52653;50.080;21.992;2023-04-10T03:29:53;99697.23;;;6.58;88.96
65872;BME280;52653;50.080;21.992;2023-04-10T03:32:37;99701.02;;;6.55;89.26
65872;BME280;52653;50.080;21.992;2023-04-10T03:35:24;99700.83;;;6.53;89.24
65872;BME280;52653;50.080;21.992;2023-04-10T03:37:57;99704.83;;;6.52;89.26
65872;BME280;52653;50.080;21.992;2023-04-10T03:40:39;99704.64;;;6.52;89.30
65872;BME280;52653;50.080;21.992;2023-04-10T03:43:13;99702.76;;;6.54;89.37
65872;BME280;52653;50.080;21.992;2023-04-10T03:45:45;99701.59;;;6.58;89.37
65872;BME280;52653;50.080;21.992;2023-04-10T03:48:20;99696.33;;;6.56;89.44
65872;BME280;52653;50.080;21.992;2023-04-10T03:50:56;99691.63;;;6.56;89.45
65872;BME280;52653;50.080;21.992;2023-04-10T03:53:49;99684.05;;;6.51;89.83
65872;BME280;52653;50.080;21.992;2023-04-10T03:56:22;99692.84;;;6.45;89.84
65872;BME280;52653;50.080;21.992;2023-04-10T03:58:57;99694.50;;;6.39;90.27
65872;BME280;52653;50.080;21.992;2023-04-10T04:01:30;99692.67;;;6.34;90.47
65872;BME280;52653;50.080;21.992;2023-04-10T04:04:17;99694.50;;;6.29;90.84
65872;BME280;52653;50.080;21.992;2023-04-10T04:06:53;99695.21;;;6.30;91.02
65872;BME280;52653;50.080;21.992;2023-04-10T04:09:48;99693.31;;;6.31;91.02
65872;BME280;52653;50.080;21.992;2023-04-10T04:12:38;99688.97;;;6.32;91.00
65872;BME280;52653;50.080;21.992;2023-04-10T04:15:33;99691.61;;;6.34;90.92
65872;BME280;52653;50.080;21.992;2023-04-10T04:18:41;99691.85;;;6.36;90.95
65872;BME280;52653;50.080;21.992;2023-04-10T04:21:39;99695.89;;;6.38;91.01
65872;BME280;52653;50.080;21.992;2023-04-10T04:24:23;99696.59;;;6.39;91.09
65872;BME280;52653;50.080;21.992;2023-04-10T04:27:03;99696.09;;;6.41;91.13
65872;BME280;52653;50.080;21.992;2023-04-10T04:29:51;99697.61;;;6.37;91.32
65872;BME280;52653;50.080;21.992;2023-04-10T04:32:29;99699.16;;;6.36;91.51
65872;BME280;52653;50.080;21.992;2023-04-10T04:35:22;99699.16;;;6.36;91.46
65872;BME280;52653;50.080;21.992;2023-04-10T04:38:21;99701.33;;;6.42;91.49
65872;BME280;52653;50.080;21.992;2023-04-10T04:41:22;99703.90;;;6.49;91.43
65872;BME280;52653;50.080;21.992;2023-04-10T04:44:19;99703.45;;;6.54;91.21
65872;BME280;52653;50.080;21.992;2023-04-10T04:47:03;99702.45;;;6.57;91.15
65872;BME280;52653;50.080;21.992;2023-04-10T04:49:58;99702.86;;;6.61;91.15
65872;BME280;52653;50.080;21.992;2023-04-10T04:52:52;99698.06;;;6.65;91.10
65872;BME280;52653;50.080;21.992;2023-04-10T04:55:50;99711.17;;;6.68;91.16
65872;BME280;52653;50.080;21.992;2023-04-10T04:58:54;99712.06;;;6.69;91.24
65872;BME280;52653;50.080;21.992;2023-04-10T05:01:59;99709.17;;;6.73;90.98
65872;BME280;52653;50.080;21.992;2023-04-10T05:04:55;99708.57;;;6.80;90.89
65872;BME280;52653;50.080;21.992;2023-04-10T05:07:46;99712.70;;;6.87;90.69
65872;BME280;52653;50.080;21.992;2023-04-10T05:10:39;99717.52;;;6.95;90.48
65872;BME280;52653;50.080;21.992;2023-04-10T05:13:32;99715.34;;;6.99;90.24
65872;BME280;52653;50.080;21.992;2023-04-10T05:16:35;99721.14;;;7.03;90.11
65872;BME280;52653;50.080;21.992;2023-04-10T05:19:43;99721.39;;;7.10;89.95
65872;BME280;52653;50.080;21.992;2023-04-10T05:22:42;99724.63;;;7.16;89.89
65872;BME280;52653;50.080;21.992;2023-04-10T05:25:38;99735.02;;;7.23;89.83
65872;BME280;52653;50.080;21.992;2023-04-10T05:28:21;99735.30;;;7.31;89.71
65872;BME280;52653;50.080;21.992;2023-04-10T05:31:02;99730.37;;;7.39;89.51
65872;BME280;52653;50.080;21.992;2023-04-10T05:33:54;99733.92;;;7.45;89.05
65872;BME280;52653;50.080;21.992;2023-04-10T05:36:55;99736.42;;;7.49;88.80
65872;BME280;52653;50.080;21.992;2023-04-10T05:39:48;99743.47;;;7.53;88.65
65872;BME280;52653;50.080;21.992;2023-04-10T05:42:44;99742.83;;;7.59;88.45
65872;BME280;52653;50.080;21.992;2023-04-10T05:45:26;99742.39;;;7.64;88.36
65872;BME280;52653;50.080;21.992;2023-04-10T05:48:05;99747.95;;;7.76;88.12
65872;BME280;52653;50.080;21.992;2023-04-10T05:51:00;99747.87;;;7.86;87.74
65872;BME280;52653;50.080;21.992;2023-04-10T05:53:59;99742.59;;;7.96;87.55
65872;BME280;52653;50.080;21.992;2023-04-10T05:56:54;99737.89;;;8.14;87.11
65872;BME280;52653;50.080;21.992;2023-04-10T05:59:36;99739.48;;;8.32;86.71
65872;BME280;52653;50.080;21.992;2023-04-10T06:02:25;99734.67;;;8.56;86.67
65872;BME280;52653;50.080;21.992;2023-04-10T06:05:19;99734.38;;;8.84;85.64
65872;BME280;52653;50.080;21.992;2023-04-10T06:07:55;99734.70;;;9.06;84.50
65872;BME280;52653;50.080;21.992;2023-04-10T06:10:30;99738.46;;;9.18;82.80
65872;BME280;52653;50.080;21.992;2023-04-10T06:13:03;99733.99;;;9.32;82.68
65872;BME280;52653;50.080;21.992;2023-04-10T06:15:42;99733.03;;;9.48;82.54
65872;BME280;52653;50.080;21.992;2023-04-10T06:18:17;99737.49;;;9.65;82.26
65872;BME280;52653;50.080;21.992;2023-04-10T06:20:51;99738.04;;;9.70;80.84
65872;BME280;52653;50.080;21.992;2023-04-10T06:23:23;99737.51;;;9.68;80.42
65872;BME280;52653;50.080;21.992;2023-04-10T06:25:56;99735.77;;;9.69;80.70
65872;BME280;52653;50.080;21.992;2023-04-10T06:28:29;99736.33;;;9.80;81.01
65872;BME280;52653;50.080;21.992;2023-04-10T06:31:06;99740.38;;;9.85;80.05
65872;BME280;52653;50.080;21.992;2023-04-10T06:33:42;99739.33;;;9.81;79.53
65872;BME280;52653;50.080;21.992;2023-04-10T06:36:27;99730.23;;;9.91;80.57
65872;BME280;52653;50.080;21.992;2023-04-10T06:39:04;99731.69;;;10.07;80.05
65872;BME280;52653;50.080;21.992;2023-04-10T06:41:40;99728.22;;;10.18;79.81
65872;BME280;52653;50.080;21.992;2023-04-10T06:44:39;99729.66;;;10.28;79.08
65872;BME280;52653;50.080;21.992;2023-04-10T06:47:22;99724.77;;;10.36;79.39
65872;BME280;52653;50.080;21.992;2023-04-10T06:49:58;99724.79;;;10.49;78.96
65872;BME280;52653;50.080;21.992;2023-04-10T06:52:30;99727.95;;;10.58;78.31
65872;BME280;52653;50.080;21.992;2023-04-10T06:55:07;99726.55;;;10.72;78.19
65872;BME280;52653;50.080;21.992;2023-04-10T06:57:39;99726.38;;;10.76;77.94
65872;BME280;52653;50.080;21.992;2023-04-10T07:00:19;99728.14;;;10.94;77.85
65872;BME280;52653;50.080;21.992;2023-04-10T07:03:03;99731.63;;;10.97;76.56
65872;BME280;52653;50.080;21.992;2023-04-10T07:05:49;99730.05;;;11.06;76.51
65872;BME280;52653;50.080;21.992;2023-04-10T07:08:22;99729.84;;;11.17;76.13
65872;BME280;52653;50.080;21.992;2023-04-10T07:10:54;99724.19;;;11.34;76.03
65872;BME280;52653;50.080;21.992;2023-04-10T07:13:31;99723.11;;;11.43;75.26
65872;BME280;52653;50.080;21.992;2023-04-10T07:16:09;99729.21;;;11.56;74.99
65872;BME280;52653;50.080;21.992;2023-04-10T07:18:45;99729.15;;;11.77;74.66
65872;BME280;52653;50.080;21.992;2023-04-10T07:21:18;99730.16;;;11.94;74.05
65872;BME280;52653;50.080;21.992;2023-04-10T07:23:52;99726.66;;;12.21;74.20
65872;BME280;52653;50.080;21.992;2023-04-10T07:26:26;99725.77;;;12.52;73.75
65872;BME280;52653;50.080;21.992;2023-04-10T07:28:58;99723.90;;;12.85;72.21
65872;BME280;52653;50.080;21.992;2023-04-10T07:31:31;99720.73;;;13.06;70.26
65872;BME280;52653;50.080;21.992;2023-04-10T07:34:07;99720.84;;;13.13;69.02
65872;BME280;52653;50.080;21.992;2023-04-10T07:36:43;99722.83;;;13.28;69.76
65872;BME280;52653;50.080;21.992;2023-04-10T07:39:19;99724.75;;;13.46;68.75
65872;BME280;52653;50.080;21.992;2023-04-10T07:41:53;99719.00;;;13.55;68.77
65872;BME280;52653;50.080;21.992;2023-04-10T07:44:36;99720.78;;;13.68;67.01
65872;BME280;52653;50.080;21.992;2023-04-10T07:47:11;99720.30;;;13.79;66.09
65872;BME280;52653;50.080;21.992;2023-04-10T07:49:46;99714.63;;;13.96;65.59
65872;BME280;52653;50.080;21.992;2023-04-10T07:52:29;99715.11;;;14.12;65.06
65872;BME280;52653;50.080;21.992;2023-04-10T07:55:03;99717.66;;;14.31;65.73
65872;BME280;52653;50.080;21.992;2023-04-10T07:57:39;99715.83;;;14.49;64.38
65872;BME280;52653;50.080;21.992;2023-04-10T08:00:16;99708.83;;;14.57;64.42
65872;BME280;52653;50.080;21.992;2023-04-10T08:03:09;99714.69;;;14.54;62.56
65872;BME280;52653;50.080;21.992;2023-04-10T08:05:50;99715.01;;;14.32;62.32
65872;BME280;52653;50.080;21.992;2023-04-10T08:08:43;99710.05;;;14.20;63.22
65872;BME280;52653;50.080;21.992;2023-04-10T08:11:38;99711.01;;;14.27;64.32
65872;BME280;52653;50.080;21.992;2023-04-10T08:14:14;99710.06;;;14.32;63.72
65872;BME280;52653;50.080;21.992;2023-04-10T08:16:58;99710.08;;;14.44;63.48
65872;BME280;52653;50.080;21.992;2023-04-10T08:19:52;99706.38;;;14.66;63.15
65872;BME280;52653;50.080;21.992;2023-04-10T08:22:34;99700.09;;;14.94;62.98
65872;BME280;52653;50.080;21.992;2023-04-10T08:25:10;99697.20;;;15.16;61.49
65872;BME280;52653;50.080;21.992;2023-04-10T08:28:04;99698.04;;;15.47;61.55
65872;BME280;52653;50.080;21.992;2023-04-10T08:30:57;99699.88;;;15.71;59.88
65872;BME280;52653;50.080;21.992;2023-04-10T08:33:33;99699.91;;;15.78;58.41
65872;BME280;52653;50.080;21.992;2023-04-10T08:36:07;99700.85;;;15.76;58.54
65872;BME280;52653;50.080;21.992;2023-04-10T08:38:54;99696.59;;;15.85;58.94
65872;BME280;52653;50.080;21.992;2023-04-10T08:41:28;99696.48;;;15.90;58.23
65872;BME280;52653;50.080;21.992;2023-04-10T08:44:03;99696.30;;;15.81;57.67
65872;BME280;52653;50.080;21.992;2023-04-10T08:46:37;99689.17;;;15.76;58.72
65872;BME280;52653;50.080;21.992;2023-04-10T08:49:20;99691.36;;;15.72;57.94
65872;BME280;52653;50.080;21.992;2023-04-10T08:51:58;99682.09;;;15.68;58.35
65872;BME280;52653;50.080;21.992;2023-04-10T08:54:34;99685.08;;;15.68;58.24
65872;BME280;52653;50.080;21.992;2023-04-10T08:57:10;99680.65;;;15.69;57.98
65872;BME280;52653;50.080;21.992;2023-04-10T08:59:49;99679.12;;;15.74;58.17
65872;BME280;52653;50.080;21.992;2023-04-10T09:02:26;99678.02;;;15.83;58.14
65872;BME280;52653;50.080;21.992;2023-04-10T09:05:00;99676.23;;;15.93;58.33
65872;BME280;52653;50.080;21.992;2023-04-10T09:07:35;99677.38;;;16.06;58.15
65872;BME280;52653;50.080;21.992;2023-04-10T09:10:11;99675.38;;;16.16;57.88
65872;BME280;52653;50.080;21.992;2023-04-10T09:12:47;99671.23;;;16.19;56.75
65872;BME280;52653;50.080;21.992;2023-04-10T09:15:20;99673.33;;;16.28;56.89
65872;BME280;52653;50.080;21.992;2023-04-10T09:17:58;99674.38;;;16.20;55.83
65872;BME280;52653;50.080;21.992;2023-04-10T09:20:32;99665.10;;;16.23;56.11
65872;BME280;52653;50.080;21.992;2023-04-10T09:23:20;99668.92;;;16.19;55.32
65872;BME280;52653;50.080;21.992;2023-04-10T09:25:55;99668.09;;;16.25;55.49
65872;BME280;52653;50.080;21.992;2023-04-10T09:28:30;99663.93;;;16.35;55.58
65872;BME280;52653;50.080;21.992;2023-04-10T09:31:30;99657.73;;;16.44;54.94
65872;BME280;52653;50.080;21.992;2023-04-10T09:34:17;99652.69;;;16.47;55.09
65872;BME280;52653;50.080;21.992;2023-04-10T09:37:05;99653.91;;;16.54;54.98
65872;BME280;52653;50.080;21.992;2023-04-10T09:39:43;99649.05;;;16.73;54.73
65872;BME280;52653;50.080;21.992;2023-04-10T09:42:31;99650.37;;;17.03;53.71
65872;BME280;52653;50.080;21.992;2023-04-10T09:45:07;99646.54;;;17.15;53.38
65872;BME280;52653;50.080;21.992;2023-04-10T09:47:40;99644.17;;;17.10;53.02
65872;BME280;52653;50.080;21.992;2023-04-10T09:50:18;99638.81;;;17.18;52.61
65872;BME280;52653;50.080;21.992;2023-04-10T09:53:20;99638.38;;;17.33;51.70
65872;BME280;52653;50.080;21.992;2023-04-10T09:55:56;99631.86;;;17.38;51.67
65872;BME280;52653;50.080;21.992;2023-04-10T09:58:35;99631.66;;;17.46;51.84
65872;BME280;52653;50.080;21.992;2023-04-10T10:01:19;99625.77;;;17.40;52.31
65872;BME280;52653;50.080;21.992;2023-04-10T10:04:04;99627.61;;;17.19;52.56
65872;BME280;52653;50.080;21.992;2023-04-10T10:06:39;99630.33;;;16.91;52.87
65872;BME280;52653;50.080;21.992;2023-04-10T10:09:12;99624.69;;;16.62;53.05
65872;BME280;52653;50.080;21.992;2023-04-10T10:11:49;99626.73;;;16.29;53.46
65872;BME280;52653;50.080;21.992;2023-04-10T10:14:28;99626.29;;;16.11;53.90
65872;BME280;52653;50.080;21.992;2023-04-10T10:17:08;99625.17;;;15.98;53.95
65872;BME280;52653;50.080;21.992;2023-04-10T10:19:47;99619.39;;;15.96;54.19
65872;BME280;52653;50.080;21.992;2023-04-10T10:22:27;99613.07;;;16.16;54.55
65872;BME280;52653;50.080;21.992;2023-04-10T10:25:01;99605.17;;;16.43;53.93
65872;BME280;52653;50.080;21.992;2023-04-10T10:27:37;99599.81;;;16.79;51.86
65872;BME280;52653;50.080;21.992;2023-04-10T10:30:12;99596.63;;;17.24;50.21
65872;BME280;52653;50.080;21.992;2023-04-10T10:33:01;99592.70;;;17.43;49.56
65872;BME280;52653;50.080;21.992;2023-04-10T10:35:38;99591.44;;;17.50;50.38
65872;BME280;52653;50.080;21.992;2023-04-10T10:38:15;99587.34;;;17.50;50.60
65872;BME280;52653;50.080;21.992;2023-04-10T10:40:54;99588.30;;;17.42;51.58
65872;BME280;52653;50.080;21.992;2023-04-10T10:43:41;99584.52;;;17.14;51.18
65872;BME280;52653;50.080;21.992;2023-04-10T10:46:27;99584.82;;;16.83;50.50
65872;BME280;52653;50.080;21.992;2023-04-10T10:49:08;99580.25;;;16.69;51.13
65872;BME280;52653;50.080;21.992;2023-04-10T10:51:50;99573.45;;;16.63;50.64
65872;BME280;52653;50.080;21.992;2023-04-10T10:54:34;99573.56;;;16.74;51.59
65872;BME280;52653;50.080;21.992;2023-04-10T10:57:45;99567.53;;;17.13;51.35
65872;BME280;52653;50.080;21.992;2023-04-10T11:00:18;99564.99;;;17.63;50.57
65872;BME280;52653;50.080;21.992;2023-04-10T11:03:29;99562.65;;;17.87;47.91
65872;BME280;52653;50.080;21.992;2023-04-10T11:06:04;99564.88;;;17.89;46.61
65872;BME280;52653;50.080;21.992;2023-04-10T11:08:42;99565.94;;;17.79;43.02
65872;BME280;52653;50.080;21.992;2023-04-10T11:11:18;99557.73;;;17.74;42.18
65872;BME280;52653;50.080;21.992;2023-04-10T11:14:16;99553.38;;;17.83;43.14
65872;BME280;52653;50.080;21.992;2023-04-10T11:16:53;99549.55;;;17.86;39.98
65872;BME280;52653;50.080;21.992;2023-04-10T11:19:29;99546.02;;;17.85;39.49
65872;BME280;52653;50.080;21.992;2023-04-10T11:22:22;99545.79;;;17.87;40.26
65872;BME280;52653;50.080;21.992;2023-04-10T11:25:01;99544.61;;;17.96;41.05
65872;BME280;52653;50.080;21.992;2023-04-10T11:27:43;99548.60;;;18.05;43.06
65872;BME280;52653;50.080;21.992;2023-04-10T11:30:28;99554.52;;;18.03;44.59
65872;BME280;52653;50.080;21.992;2023-04-10T11:33:18;99547.59;;;17.81;46.55
65872;BME280;52653;50.080;21.992;2023-04-10T11:35:48;99540.17;;;17.61;48.88
65872;BME280;52653;50.080;21.992;2023-04-10T11:38:21;99540.36;;;17.44;49.29
65872;BME280;52653;50.080;21.992;2023-04-10T11:41:03;99533.11;;;17.31;50.13
65872;BME280;52653;50.080;21.992;2023-04-10T11:43:36;99527.19;;;17.28;48.61
65872;BME280;52653;50.080;21.992;2023-04-10T11:46:09;99523.71;;;17.25;46.07
65872;BME280;52653;50.080;21.992;2023-04-10T11:48:42;99519.95;;;17.39;45.70
65872;BME280;52653;50.080;21.992;2023-04-10T11:51:20;99513.16;;;17.63;45.80
65872;BME280;52653;50.080;21.992;2023-04-10T11:54:05;99504.28;;;17.92;44.30
65872;BME280;52653;50.080;21.992;2023-04-10T11:56:41;99504.10;;;18.24;44.11
65872;BME280;52653;50.080;21.992;2023-04-10T11:59:18;99497.97;;;18.47;43.28
65872;BME280;52653;50.080;21.992;2023-04-10T12:02:12;99491.45;;;18.45;42.06
65872;BME280;52653;50.080;21.992;2023-04-10T12:04:47;99492.38;;;18.24;41.14
65872;BME280;52653;50.080;21.992;2023-04-10T12:07:32;99488.65;;;18.13;42.44
65872;BME280;52653;50.080;21.992;2023-04-10T12:10:09;99487.46;;;18.27;42.52
65872;BME280;52653;50.080;21.992;2023-04-10T12:12:42;99481.48;;;18.51;41.49
65872;BME280;52653;50.080;21.992;2023-04-10T12:15:28;99473.20;;;18.84;41.99
65872;BME280;52653;50.080;21.992;2023-04-10T12:18:05;99470.08;;;19.10;39.39
65872;BME280;52653;50.080;21.992;2023-04-10T12:20:37;99478.41;;;18.97;38.83
65872;BME280;52653;50.080;21.992;2023-04-10T12:23:24;99478.42;;;18.67;39.67
65872;BME280;52653;50.080;21.992;2023-04-10T12:26:09;99485.23;;;18.40;40.95
65872;BME280;52653;50.080;21.992;2023-04-10T12:28:52;99487.95;;;18.02;46.71
65872;BME280;52653;50.080;21.992;2023-04-10T12:31:30;99481.36;;;17.54;48.31
65872;BME280;52653;50.080;21.992;2023-04-10T12:34:05;99479.19;;;17.09;48.68
65872;BME280;52653;50.080;21.992;2023-04-10T12:36:52;99477.73;;;16.67;48.92
65872;BME280;52653;50.080;21.992;2023-04-10T12:39:25;99475.09;;;16.33;49.45
65872;BME280;52653;50.080;21.992;2023-04-10T12:44:56;99473.47;;;16.08;48.01
65872;BME280;52653;50.080;21.992;2023-04-10T12:47:44;99468.50;;;16.02;48.69
65872;BME280;52653;50.080;21.992;2023-04-10T12:50:19;99462.63;;;16.10;47.69
65872;BME280;52653;50.080;21.992;2023-04-10T12:53:04;99454.21;;;16.27;48.05
65872;BME280;52653;50.080;21.992;2023-04-10T12:55:37;99451.30;;;16.56;48.45
65872;BME280;52653;50.080;21.992;2023-04-10T12:58:23;99446.06;;;16.90;47.72
65872;BME280;52653;50.080;21.992;2023-04-10T13:01:01;99441.70;;;17.24;46.91
65872;BME280;52653;50.080;21.992;2023-04-10T13:03:45;99438.80;;;17.53;45.09
65872;BME280;52653;50.080;21.992;2023-04-10T13:06:20;99436.44;;;17.83;44.62
65872;BME280;52653;50.080;21.992;2023-04-10T13:08:52;99433.81;;;18.18;43.75
65872;BME280;52653;50.080;21.992;2023-04-10T13:11:27;99429.22;;;18.47;43.65
65872;BME280;52653;50.080;21.992;2023-04-10T13:14:04;99426.09;;;18.70;42.54
65872;BME280;52653;50.080;21.992;2023-04-10T13:16:40;99427.69;;;18.70;42.16
65872;BME280;52653;50.080;21.992;2023-04-10T13:19:17;99424.70;;;18.49;41.30
65872;BME280;52653;50.080;21.992;2023-04-10T13:21:51;99422.28;;;18.22;41.19
65872;BME280;52653;50.080;21.992;2023-04-10T13:24:29;99427.14;;;18.00;41.42
65872;BME280;52653;50.080;21.992;2023-04-10T13:27:03;99435.34;;;17.78;42.10
65872;BME280;52653;50.080;21.992;2023-04-10T13:29:36;99432.54;;;17.60;41.73
65872;BME280;52653;50.080;21.992;2023-04-10T13:32:11;99430.58;;;17.44;41.35
65872;BME280;52653;50.080;21.992;2023-04-10T13:34:47;99428.02;;;17.42;42.12
65872;BME280;52653;50.080;21.992;2023-04-10T13:37:21;99424.27;;;17.42;42.53
65872;BME280;52653;50.080;21.992;2023-04-10T13:40:05;99422.85;;;17.36;43.06
65872;BME280;52653;50.080;21.992;2023-04-10T13:42:38;99419.09;;;17.43;43.86
65872;BME280;52653;50.080;21.992;2023-04-10T13:45:24;99417.08;;;17.67;44.34
65872;BME280;52653;50.080;21.992;2023-04-10T13:48:08;99418.42;;;17.96;42.44
65872;BME280;52653;50.080;21.992;2023-04-10T13:51:02;99411.52;;;18.26;40.55
65872;BME280;52653;50.080;21.992;2023-04-10T13:53:56;99417.27;;;18.53;40.49
65872;BME280;52653;50.080;21.992;2023-04-10T13:56:29;99425.10;;;18.63;38.65
65872;BME280;52653;50.080;21.992;2023-04-10T13:59:06;99428.96;;;18.44;37.92
65872;BME280;52653;50.080;21.992;2023-04-10T14:01:39;99432.74;;;18.08;38.94
65872;BME280;52653;50.080;21.992;2023-04-10T14:04:12;99437.30;;;17.56;39.85
65872;BME280;52653;50.080;21.992;2023-04-10T14:06:49;99437.95;;;17.07;41.22
65872;BME280;52653;50.080;21.992;2023-04-10T14:09:31;99441.17;;;16.70;42.06
65872;BME280;52653;50.080;21.992;2023-04-10T14:12:04;99443.48;;;16.44;43.29